Time;durP1;ratioP1;P1;durP2;ratioP2;P2;SDS_P1;SDS_P2;PMS_P1;PMS_P2;Temp;Humidity;BMP_temperature;BMP_pressure;BME280_temperature;BME280_humidity;BME280_pressure;Samples;Min_cycle;Max_cycle;Signal;HPM_P1;HPM_P2
2020/12/25 00:01:46;;;;;;;2.80;2.70;;;2.00;99.90;;;2.47;95.72;97568.53;5202985;28;20224;-75
2020/12/25 00:04:19;;;;;;;2.43;2.37;;;1.90;99.90;;;2.39;96.13;97565.34;5203719;28;20681;-75
2020/12/25 00:06:51;;;;;;;2.80;2.70;;;1.90;99.90;;;2.44;95.49;97571.66;5204017;28;20299;-75
2020/12/25 00:09:23;;;;;;;2.83;2.73;;;1.90;99.90;;;2.35;95.87;97575.97;5202498;28;20199;-75
2020/12/25 00:11:56;;;;;;;2.87;2.77;;;1.80;99.90;;;2.36;96.18;97571.78;5203590;28;20263;-75
2020/12/25 00:14:28;;;;;;;2.70;2.60;;;1.80;99.90;;;2.31;96.88;97575.56;5203610;28;20281;-76
2020/12/25 00:17:00;;;;;;;2.87;2.77;;;1.80;99.90;;;2.30;96.48;97577.19;5202840;28;20218;-75
2020/12/25 00:19:32;;;;;;;3.10;2.97;;;1.90;99.90;;;2.24;97.20;97576.69;5202864;28;20212;-75
2020/12/25 00:22:05;;;;;;;2.60;2.50;;;1.80;99.90;;;2.32;96.20;97577.31;5202768;28;20317;-75
2020/12/25 00:24:37;;;;;;;2.60;2.50;;;1.80;99.90;;;2.33;96.26;97586.66;5203901;28;20294;-75
2020/12/25 00:27:09;;;;;;;2.60;2.50;;;1.80;99.90;;;2.32;97.16;97592.44;5213891;28;20202;-75
2020/12/25 00:29:41;;;;;;;2.67;2.57;;;1.80;99.90;;;2.34;97.26;97584.25;5205966;28;20247;-75
2020/12/25 00:32:13;;;;;;;2.77;2.67;;;1.80;99.90;;;2.31;97.92;97599.13;5202481;28;20312;-75
2020/12/25 00:34:45;;;;;;;2.77;2.67;;;1.80;99.90;;;2.25;97.18;97588.53;5202994;28;20213;-75
2020/12/25 00:37:18;;;;;;;2.57;2.47;;;1.80;99.90;;;2.37;97.90;97597.13;5203702;28;20201;-76
2020/12/25 00:39:50;;;;;;;2.67;2.57;;;1.80;99.90;;;2.32;98.43;97595.88;5202747;28;20208;-75
2020/12/25 00:42:22;;;;;;;2.97;2.87;;;1.90;99.90;;;2.36;97.39;97602.06;5203980;28;20708;-75
2020/12/25 00:44:54;;;;;;;2.60;2.50;;;1.90;99.90;;;2.36;98.41;97602.94;5207697;28;20570;-75
2020/12/25 00:47:26;;;;;;;2.53;2.43;;;1.90;99.90;;;2.37;98.13;97621.47;5206704;28;20194;-75
2020/12/25 00:49:58;;;;;;;2.23;2.13;;;1.90;99.90;;;2.37;99.13;97614.78;5207307;28;20202;-75
2020/12/25 00:52:31;;;;;;;2.70;2.60;;;1.90;99.90;;;2.41;98.54;97616.81;5207064;28;20589;-75
2020/12/25 00:55:03;;;;;;;2.70;2.60;;;1.90;99.90;;;2.46;98.58;97618.09;5206832;28;20197;-75
2020/12/25 00:57:35;;;;;;;2.57;2.47;;;1.90;99.90;;;2.52;98.76;97622.78;5207153;28;20304;-75
2020/12/25 01:00:07;;;;;;;2.73;2.63;;;2.00;99.90;;;2.58;98.49;97635.88;5205482;28;20208;-75
2020/12/25 01:02:39;;;;;;;2.90;2.80;;;2.00;99.90;;;2.56;99.61;97642.44;5206823;28;20599;-75
2020/12/25 01:05:11;;;;;;;3.17;3.07;;;2.00;99.90;;;2.58;99.68;97645.97;5206487;28;20682;-75
2020/12/25 01:07:44;;;;;;;3.20;3.00;;;2.00;99.90;;;2.69;99.77;97650.28;5206979;28;20275;-75
2020/12/25 01:10:17;;;;;;;3.03;2.93;;;2.10;99.90;;;2.64;99.04;97654.06;5206270;28;20291;-75
2020/12/25 01:12:49;;;;;;;3.27;3.07;;;2.00;99.90;;;2.68;100.00;97657.72;5206786;28;20206;-75
2020/12/25 01:15:21;;;;;;;3.30;3.10;;;2.10;99.90;;;2.70;99.47;97652.03;5198384;28;20664;-75
2020/12/25 01:17:53;;;;;;;3.27;3.07;;;2.10;99.90;;;2.69;100.00;97664.53;5205880;28;20293;-75
2020/12/25 01:20:25;;;;;;;3.20;2.90;;;2.10;99.90;;;2.73;100.00;97671.59;5206751;28;20287;-75
2020/12/25 01:22:58;;;;;;;3.40;3.27;;;2.20;99.90;;;2.74;100.00;97677.53;5206190;28;20305;-75
2020/12/25 01:25:30;;;;;;;3.47;3.37;;;2.20;99.90;;;2.81;100.00;97687.41;5206551;28;20672;-75
2020/12/25 01:28:02;;;;;;;3.50;3.30;;;2.20;99.90;;;2.90;100.00;97691.56;5206379;28;20284;-75
2020/12/25 01:30:34;;;;;;;3.30;3.20;;;2.20;99.90;;;2.87;100.00;97705.56;5205169;28;20218;-75
2020/12/25 01:33:06;;;;;;;3.03;2.93;;;2.20;99.90;;;2.83;100.00;97708.56;5206774;28;20278;-75
2020/12/25 01:35:38;;;;;;;3.40;3.30;;;2.20;99.90;;;2.86;100.00;97714.78;5206133;28;20648;-76
2020/12/25 01:38:11;;;;;;;3.17;3.07;;;2.20;99.90;;;2.89;100.00;97714.13;5206659;28;20285;-75
2020/12/25 01:40:43;;;;;;;2.93;2.83;;;2.20;99.90;;;2.87;100.00;97716.53;5205284;28;20243;-75
2020/12/25 01:43:15;;;;;;;3.03;2.93;;;2.20;99.90;;;2.90;100.00;97720.97;5206804;28;20206;-76
2020/12/25 01:45:47;;;;;;;3.87;3.67;;;2.30;99.90;;;2.90;100.00;97726.03;5205213;28;20202;-76
2020/12/25 01:48:20;;;;;;;3.87;3.67;;;2.30;99.90;;;2.88;100.00;97718.31;5205841;28;20201;-75
2020/12/25 01:50:53;;;;;;;3.47;3.27;;;2.30;99.90;;;2.93;100.00;97729.69;5205748;28;20567;-75
2020/12/25 01:53:28;;;;;;;3.40;3.30;;;2.30;99.90;;;2.97;100.00;97733.34;5205430;28;20299;-75
2020/12/25 01:56:01;;;;;;;3.90;3.70;;;2.20;99.90;;;2.93;100.00;97736.38;5206158;28;20204;-75
2020/12/25 01:58:33;;;;;;;3.43;3.30;;;2.30;99.90;;;2.90;100.00;97721.84;5205843;28;20720;-75
2020/12/25 02:01:05;;;;;;;3.70;3.50;;;2.30;99.90;;;2.96;100.00;97724.00;5205148;28;20226;-75
2020/12/25 02:03:38;;;;;;;3.17;3.07;;;2.30;99.90;;;2.88;100.00;97722.47;5205506;28;20226;-76
2020/12/25 02:06:10;;;;;;;3.27;3.17;;;2.20;99.90;;;2.81;100.00;97725.25;5205864;28;20296;-76
2020/12/25 02:08:43;;;;;;;3.40;3.20;;;2.20;99.90;;;2.71;100.00;97731.13;5205469;28;20301;-75
2020/12/25 02:11:16;;;;;;;3.07;2.97;;;2.10;99.90;;;2.66;100.00;97733.28;5205214;28;20226;-75
2020/12/25 02:13:48;;;;;;;2.90;2.80;;;2.10;99.90;;;2.66;100.00;97740.84;5205266;28;20202;-76
2020/12/25 02:16:20;;;;;;;3.00;2.90;;;2.10;99.90;;;2.77;100.00;97745.91;5205441;28;20748;-75
2020/12/25 02:18:52;;;;;;;3.07;2.97;;;2.10;99.90;;;2.87;100.00;97751.00;5204754;28;20206;-75
2020/12/25 02:21:25;;;;;;;3.33;3.23;;;2.10;99.90;;;2.77;100.00;97750.97;5205660;28;20308;-75
2020/12/25 02:23:57;;;;;;;3.23;3.13;;;2.20;99.90;;;2.76;100.00;97759.31;5205096;28;20194;-76
2020/12/25 02:26:29;;;;;;;3.27;3.17;;;2.20;99.90;;;2.78;100.00;97770.41;5205538;28;20288;-76
2020/12/25 02:29:01;;;;;;;3.10;3.00;;;2.20;99.90;;;2.74;100.00;97768.38;5205109;28;20578;-75
2020/12/25 02:31:33;;;;;;;3.50;3.40;;;2.10;99.90;;;2.71;100.00;97764.81;5205243;28;20218;-75
2020/12/25 02:34:05;;;;;;;3.77;3.57;;;2.10;99.90;;;2.75;100.00;97771.03;5204615;28;20198;-75
2020/12/25 02:36:38;;;;;;;3.97;3.77;;;2.10;99.90;;;2.79;100.00;97773.06;5205742;28;20198;-75
2020/12/25 02:39:10;;;;;;;4.13;3.93;;;2.20;99.90;;;2.94;100.00;97769.28;5204541;28;20733;-76
2020/12/25 02:41:42;;;;;;;4.23;4.03;;;2.20;99.90;;;2.90;100.00;97779.03;5205140;28;20740;-75
2020/12/25 02:44:15;;;;;;;4.60;4.20;;;2.20;99.90;;;2.97;100.00;97777.88;5204835;28;20570;-75
2020/12/25 02:46:48;;;;;;;4.43;4.23;;;2.30;99.90;;;2.90;100.00;97777.38;5204772;28;20198;-75
2020/12/25 02:49:20;;;;;;;4.03;3.83;;;2.20;99.90;;;2.86;100.00;97782.94;5204455;28;20580;-75
2020/12/25 02:51:53;;;;;;;4.03;3.83;;;2.10;99.90;;;2.84;100.00;97781.91;5204910;28;20633;-76
2020/12/25 02:54:25;;;;;;;4.13;3.93;;;2.10;99.90;;;2.84;100.00;97786.06;5204944;28;20198;-75
2020/12/25 02:56:57;;;;;;;3.13;3.03;;;2.10;99.90;;;2.76;100.00;97789.59;5204592;28;20660;-76
2020/12/25 02:59:29;;;;;;;3.73;3.53;;;2.00;99.90;;;2.78;100.00;97788.97;5204972;28;20198;-75
2020/12/25 03:02:01;;;;;;;4.03;3.83;;;2.00;99.90;;;2.87;100.00;97796.44;5204023;28;20632;-75
2020/12/25 03:04:33;;;;;;;4.00;3.80;;;2.00;99.90;;;2.91;100.00;97808.53;5204055;28;20565;-76
2020/12/25 03:07:06;;;;;;;4.50;4.30;;;2.00;99.90;;;2.78;100.00;97805.75;5204477;28;20288;-75
2020/12/25 03:09:38;;;;;;;4.60;4.40;;;2.10;99.90;;;2.75;100.00;97805.44;5204385;28;20657;-75
2020/12/25 03:12:10;;;;;;;4.83;4.63;;;2.00;99.90;;;2.61;100.00;97805.16;5204897;28;20305;-75
2020/12/25 03:14:42;;;;;;;5.10;4.70;;;1.90;99.90;;;2.61;100.00;97807.69;5204590;28;20665;-75
2020/12/25 03:17:14;;;;;;;4.80;4.50;;;2.00;99.90;;;2.58;100.00;97799.84;5205209;28;20653;-76
2020/12/25 03:19:46;;;;;;;4.80;4.53;;;2.10;99.90;;;2.52;100.00;97799.34;5204762;28;20212;-75
2020/12/25 03:22:19;;;;;;;4.60;4.30;;;1.90;99.90;;;2.37;99.79;97805.56;5205118;28;20222;-75
2020/12/25 03:24:51;;;;;;;5.13;4.73;;;1.80;99.90;;;2.29;100.00;97812.47;5204693;28;20206;-75
2020/12/25 03:27:23;;;;;;;5.57;5.17;;;1.90;99.90;;;2.18;100.00;97808.13;5205020;28;20196;-75
2020/12/25 03:29:55;;;;;;;5.37;5.07;;;1.70;99.90;;;2.23;100.00;97812.81;5204021;28;20204;-75
2020/12/25 03:32:27;;;;;;;5.13;4.73;;;1.80;99.90;;;2.24;100.00;97809.53;5203857;28;20296;-75
2020/12/25 03:34:59;;;;;;;6.03;5.57;;;1.80;99.90;;;2.35;100.00;97812.13;5204598;28;20196;-75
2020/12/25 03:37:32;;;;;;;5.87;5.47;;;1.80;99.90;;;2.41;100.00;97810.13;5204343;28;20189;-76
2020/12/25 03:40:04;;;;;;;5.67;5.27;;;1.80;99.90;;;2.37;100.00;97808.06;5203561;28;20328;-76
2020/12/25 03:42:37;;;;;;;5.87;5.47;;;1.80;99.90;;;2.39;100.00;97809.09;5203993;28;20228;-75
2020/12/25 03:45:09;;;;;;;4.47;4.17;;;1.80;99.90;;;2.44;100.00;97805.34;5203830;28;20189;-75
2020/12/25 03:47:41;;;;;;;4.70;4.40;;;1.80;99.90;;;2.46;99.75;97811.38;5203836;28;20201;-76
2020/12/25 03:50:14;;;;;;;4.90;4.60;;;1.80;99.90;;;2.37;99.85;97805.56;5203958;28;20650;-75
2020/12/25 03:52:46;;;;;;;5.23;4.83;;;1.80;99.90;;;2.34;99.69;97813.72;5204740;28;20198;-76
2020/12/25 03:55:18;;;;;;;5.10;4.70;;;1.70;99.90;;;2.34;98.22;97818.78;5204022;28;20201;-75
2020/12/25 03:57:51;;;;;;;5.50;5.13;;;1.70;99.90;;;2.21;98.65;97823.50;5204421;28;20693;-76
2020/12/25 04:00:23;;;;;;;5.37;4.97;;;1.60;99.90;;;2.10;98.61;97826.72;5202478;28;20208;-75
2020/12/25 04:02:55;;;;;;;5.60;5.20;;;1.60;99.90;;;2.06;98.67;97829.69;5204278;28;20606;-76
2020/12/25 04:05:27;;;;;;;5.73;5.33;;;1.60;99.90;;;2.06;98.20;97832.22;5203873;28;20194;-75
2020/12/25 04:07:59;;;;;;;6.00;5.60;;;1.60;99.90;;;1.99;97.95;97834.19;5203823;28;20207;-75
2020/12/25 04:10:31;;;;;;;6.33;5.83;;;1.60;99.90;;;1.97;98.13;97834.81;5202436;28;20212;-76
2020/12/25 04:13:05;;;;;;;6.83;6.23;;;1.60;99.90;;;1.96;98.23;97830.53;5204560;28;20196;-76
2020/12/25 04:15:37;;;;;;;6.43;6.03;;;1.60;99.90;;;1.96;98.12;97841.47;5203020;28;20243;-76
2020/12/25 04:18:09;;;;;;;6.50;6.00;;;1.60;99.90;;;1.95;98.77;97844.75;5207230;28;20663;-75
2020/12/25 04:20:41;;;;;;;6.53;6.03;;;1.50;99.90;;;2.00;98.76;97837.59;5207062;28;20295;-75
2020/12/25 04:23:14;;;;;;;6.90;6.37;;;1.50;99.90;;;2.00;99.07;97842.63;5207669;28;20235;-75
2020/12/25 04:25:46;;;;;;;6.90;6.40;;;1.60;99.90;;;2.02;98.98;97828.53;5207920;28;20205;-76
2020/12/25 04:28:18;;;;;;;7.23;6.63;;;1.60;99.90;;;2.09;99.32;97835.91;5208227;28;20240;-75
2020/12/25 04:30:50;;;;;;;6.47;5.97;;;1.60;99.90;;;2.11;99.18;97846.13;5206092;28;20224;-75
2020/12/25 04:33:22;;;;;;;7.30;6.70;;;1.60;99.90;;;2.14;99.57;97848.91;5207836;28;20264;-75
2020/12/25 04:35:54;;;;;;;7.03;6.43;;;1.60;99.90;;;2.20;100.00;97860.44;5207469;28;20590;-75
2020/12/25 04:38:27;;;;;;;7.30;6.70;;;1.70;99.90;;;2.24;99.84;97854.91;5207494;28;20194;-75
2020/12/25 04:41:00;;;;;;;7.33;6.80;;;1.70;99.90;;;2.28;100.00;97855.19;5198607;28;20229;-75
2020/12/25 04:43:33;;;;;;;7.13;6.53;;;1.80;99.90;;;2.33;100.00;97864.94;5207284;28;20309;-75
2020/12/25 04:46:06;;;;;;;8.33;7.63;;;1.80;99.90;;;2.33;100.00;97869.09;5206638;28;20289;-76
2020/12/25 04:48:39;;;;;;;7.70;7.10;;;1.80;99.90;;;2.32;99.21;97877.38;5206739;28;20205;-75
2020/12/25 04:51:12;;;;;;;7.77;7.10;;;1.70;99.90;;;2.32;100.00;97873.25;5207539;28;20222;-75
2020/12/25 04:53:49;;;;;;;7.83;7.23;;;1.70;99.90;;;2.34;100.00;97876.78;5206836;28;20201;-75
2020/12/25 04:56:24;;;;;;;8.10;7.50;;;1.80;99.90;;;2.35;100.00;97873.53;5207197;28;20724;-75
2020/12/25 04:58:57;;;;;;;9.13;8.43;;;1.80;99.90;;;2.39;100.00;97869.63;5207006;28;20291;-75
2020/12/25 05:01:29;;;;;;;8.67;7.97;;;1.80;99.90;;;2.46;100.00;97877.88;5207043;28;20654;-76
2020/12/25 05:04:01;;;;;;;9.13;8.43;;;1.80;99.90;;;2.42;100.00;97877.47;5206179;28;20236;-75
2020/12/25 05:06:39;;;;;;;8.70;7.90;;;1.80;99.90;;;2.38;100.00;97876.31;5207397;28;20617;-75
2020/12/25 05:09:16;;;;;;;8.70;8.00;;;1.80;99.90;;;2.37;100.00;97886.25;5205976;28;20214;-75
2020/12/25 05:11:52;;;;;;;9.60;8.80;;;1.70;99.90;;;2.38;100.00;97880.47;5207179;28;20217;-76
2020/12/25 05:14:25;;;;;;;9.93;9.13;;;1.80;99.90;;;2.39;100.00;97879.72;5206526;28;20232;-75
2020/12/25 05:16:58;;;;;;;9.23;8.43;;;1.80;99.90;;;2.51;100.00;97890.88;5206879;28;20204;-76
2020/12/25 05:19:32;;;;;;;9.83;9.03;;;1.80;99.90;;;2.52;100.00;97890.16;5205278;28;20201;-76
2020/12/25 05:22:07;;;;;;;11.33;10.23;;;1.90;99.90;;;2.58;100.00;97888.16;5207436;28;20726;-76
2020/12/25 05:24:40;;;;;;;11.43;10.43;;;1.90;99.90;;;2.58;100.00;97898.25;5206374;28;20649;-75
2020/12/25 05:27:13;;;;;;;10.23;9.23;;;1.90;99.90;;;2.57;100.00;97893.06;5207063;28;20300;-75
2020/12/25 05:29:49;;;;;;;9.93;8.93;;;1.90;99.90;;;2.57;100.00;97898.97;5204311;28;20202;-75
2020/12/25 05:32:24;;;;;;;11.20;10.20;;;1.90;99.90;;;2.58;100.00;97903.28;5206479;28;20222;-76
2020/12/25 05:34:57;;;;;;;10.37;9.47;;;1.90;99.90;;;2.59;100.00;97909.22;5206274;28;20220;-76
2020/12/25 05:37:34;;;;;;;11.23;10.13;;;1.90;99.90;;;2.58;100.00;97902.41;5206819;28;20227;-75
2020/12/25 05:40:09;;;;;;;10.27;9.30;;;1.90;99.90;;;2.59;100.00;97906.69;5204645;28;20217;-76
2020/12/25 05:42:45;;;;;;;10.30;9.40;;;1.90;99.90;;;2.65;100.00;97918.22;5206049;28;20296;-76
2020/12/25 05:45:18;;;;;;;10.97;9.97;;;2.00;99.90;;;2.63;100.00;97922.25;5205801;28;20283;-76
2020/12/25 05:48:05;;;;;;;10.00;9.00;;;2.00;99.90;;;2.67;100.00;97921.75;5205729;28;20208;-76
2020/12/25 05:50:39;;;;;;;10.03;9.13;;;2.00;99.90;;;2.67;100.00;97923.41;5205905;28;20312;-76
2020/12/25 05:53:11;;;;;;;11.30;10.30;;;2.00;99.90;;;2.74;100.00;97929.88;5205815;28;20235;-76
2020/12/25 05:55:45;;;;;;;10.57;9.67;;;2.10;99.90;;;2.69;100.00;97932.88;5206080;28;20230;-76
2020/12/25 05:58:17;;;;;;;11.07;10.07;;;2.10;99.90;;;2.72;100.00;97932.28;5206256;28;20316;-75
2020/12/25 06:00:49;;;;;;;10.67;9.67;;;2.10;99.90;;;2.79;100.00;97932.03;5204392;28;20597;-75
2020/12/25 06:03:22;;;;;;;10.50;9.50;;;2.10;99.90;;;2.82;100.00;97939.88;5204076;28;20222;-76
2020/12/25 06:06:00;;;;;;;10.30;9.30;;;2.00;99.90;;;2.73;100.00;97943.25;5204997;28;20194;-76
2020/12/25 06:08:37;;;;;;;9.43;8.63;;;2.00;99.90;;;2.77;100.00;97940.22;5204982;28;20560;-76
2020/12/25 06:11:11;;;;;;;10.70;9.70;;;2.10;99.90;;;2.81;100.00;97950.75;5204776;28;20584;-76
2020/12/25 06:13:44;;;;;;;10.83;9.93;;;2.20;99.90;;;2.86;100.00;97951.13;5204562;28;20280;-76
2020/12/25 06:16:22;;;;;;;11.17;10.10;;;2.20;99.90;;;2.89;100.00;97946.34;5204073;28;20216;-76
2020/12/25 06:19:05;;;;;;;11.43;10.33;;;2.20;99.90;;;2.87;100.00;97947.88;5204874;28;20637;-76
2020/12/25 06:21:49;;;;;;;10.63;9.63;;;2.20;99.90;;;2.83;100.00;97948.31;5204654;28;20213;-76
2020/12/25 06:24:27;;;;;;;10.73;9.73;;;2.10;99.90;;;2.85;100.00;97959.47;5204963;28;20221;-75
2020/12/25 06:27:01;;;;;;;10.77;9.77;;;2.20;99.90;;;2.84;100.00;97966.16;5204898;28;20201;-75
2020/12/25 06:29:33;;;;;;;11.07;9.97;;;2.10;99.90;;;2.83;100.00;97958.44;5204742;28;20561;-75
2020/12/25 06:32:05;;;;;;;10.87;9.90;;;2.20;99.90;;;2.81;100.00;97954.91;5202540;28;20304;-76
2020/12/25 06:34:45;;;;;;;10.83;9.83;;;2.10;99.90;;;2.82;100.00;97964.25;5209301;28;20272;-76
2020/12/25 06:37:18;;;;;;;10.40;9.40;;;2.10;99.90;;;2.84;100.00;97957.69;5204149;28;20713;-75
2020/12/25 06:39:52;;;;;;;11.33;10.30;;;2.20;99.90;;;2.87;100.00;97956.31;5204567;28;20233;-76
2020/12/25 06:42:28;;;;;;;11.20;10.10;;;2.20;99.90;;;2.83;100.00;97971.97;5204173;28;20218;-76
2020/12/25 06:45:02;;;;;;;11.73;10.63;;;2.20;99.90;;;2.82;100.00;97967.63;5204943;28;20685;-76
2020/12/25 06:47:37;;;;;;;10.97;9.97;;;2.20;99.90;;;2.88;100.00;97967.28;5203598;28;20208;-76
2020/12/25 06:50:11;;;;;;;10.90;9.90;;;2.20;99.90;;;2.82;100.00;97966.75;5204516;28;20190;-76
2020/12/25 06:53:08;;;;;;;10.40;9.50;;;2.10;99.90;;;2.80;100.00;97971.66;5204099;28;20193;-76
2020/12/25 06:55:43;;;;;;;11.20;10.20;;;2.20;99.90;;;2.81;100.00;97973.44;5195215;28;20230;-76
2020/12/25 06:58:21;;;;;;;10.97;9.97;;;2.20;99.90;;;2.85;100.00;97990.63;5209327;28;20225;-76
2020/12/25 07:00:57;;;;;;;10.83;9.80;;;2.20;99.90;;;2.86;100.00;97981.41;5203550;28;20225;-76
2020/12/25 07:03:35;;;;;;;11.43;10.23;;;2.20;99.90;;;2.92;100.00;97987.03;5204981;28;20217;-76
2020/12/25 07:06:10;;;;;;;11.03;10.03;;;2.20;99.90;;;3.01;100.00;97992.88;5204382;28;20194;-76
2020/12/25 07:08:51;;;;;;;11.87;10.77;;;2.30;99.90;;;3.06;100.00;98000.84;5204733;28;20508;-76
2020/12/25 07:11:23;;;;;;;11.80;10.50;;;2.30;99.90;;;3.09;100.00;98002.03;5202724;28;20217;-76
2020/12/25 07:13:56;;;;;;;11.93;10.83;;;2.30;99.90;;;3.08;100.00;98004.41;5204577;28;20224;-76
2020/12/25 07:16:28;;;;;;;11.93;10.80;;;2.30;99.90;;;3.07;100.00;98012.72;5198121;28;20195;-76
2020/12/25 07:19:00;;;;;;;11.50;10.50;;;2.30;99.90;;;3.05;100.00;98020.16;5204371;28;20293;-76
2020/12/25 07:21:32;;;;;;;11.87;10.67;;;2.30;99.90;;;3.05;100.00;98019.28;5203925;28;20693;-76
2020/12/25 07:24:05;;;;;;;11.90;10.70;;;2.30;99.90;;;3.02;100.00;98027.47;5204529;28;20276;-76
2020/12/25 07:26:37;;;;;;;11.20;10.10;;;2.30;99.90;;;3.03;100.00;98024.16;5204605;28;20187;-76
2020/12/25 07:29:14;;;;;;;12.27;10.97;;;2.30;99.90;;;3.04;100.00;98023.44;5203479;28;20198;-76
2020/12/25 07:31:47;;;;;;;12.53;11.33;;;2.30;99.90;;;3.14;100.00;98033.59;5209918;28;20769;-76
2020/12/25 07:34:21;;;;;;;13.60;12.20;;;2.30;99.90;;;3.14;100.00;98035.22;5225549;28;20207;-76
2020/12/25 07:36:55;;;;;;;12.83;11.53;;;2.30;99.90;;;3.10;100.00;98038.25;5203092;28;20206;-76
2020/12/25 07:39:29;;;;;;;13.30;12.00;;;2.30;99.90;;;3.09;100.00;98047.47;5193338;28;20723;-76
2020/12/25 07:42:01;;;;;;;12.23;11.00;;;2.40;99.90;;;3.12;100.00;98050.25;5203256;28;20222;-76
2020/12/25 07:44:34;;;;;;;12.47;11.17;;;2.30;99.90;;;3.04;100.00;98048.69;5201020;28;20226;-76
2020/12/25 07:47:09;;;;;;;12.60;11.30;;;2.30;99.90;;;3.04;100.00;98047.81;5201361;28;20213;-76
2020/12/25 07:49:44;;;;;;;12.93;11.60;;;2.30;99.90;;;3.08;100.00;98054.88;5197769;28;20198;-75
2020/12/25 07:52:17;;;;;;;12.93;11.60;;;2.30;99.90;;;3.12;100.00;98057.84;5201483;28;20334;-77
2020/12/25 07:54:49;;;;;;;13.90;11.80;;;2.40;99.90;;;3.19;100.00;98053.31;5201307;28;20205;-77
2020/12/25 07:57:23;;;;;;;13.50;12.20;;;2.40;99.90;;;3.21;100.00;98066.97;5201739;28;20201;-76
2020/12/25 07:59:56;;;;;;;14.00;12.50;;;2.40;99.90;;;3.25;100.00;98074.06;5200650;28;20297;-76
2020/12/25 08:02:32;;;;;;;13.03;11.83;;;2.40;99.90;;;3.27;100.00;98068.41;5200952;28;20682;-76
2020/12/25 08:05:09;;;;;;;12.77;11.47;;;2.40;99.90;;;3.21;100.00;98072.03;5201176;28;20208;-76
2020/12/25 08:07:43;;;;;;;13.37;12.07;;;2.50;99.90;;;3.25;100.00;98081.63;5202133;28;20272;-76
2020/12/25 08:10:18;;;;;;;14.07;12.70;;;2.50;99.90;;;3.20;100.00;98071.13;5199981;28;20546;-76
2020/12/25 08:12:54;;;;;;;15.17;13.50;;;2.50;99.90;;;3.27;100.00;98080.16;5201678;28;20297;-76
2020/12/25 08:15:27;;;;;;;14.53;12.90;;;2.50;99.90;;;3.27;100.00;98088.59;5200896;28;20229;-76
2020/12/25 08:18:01;;;;;;;14.80;13.23;;;2.50;99.90;;;3.22;100.00;98083.91;5201174;28;20651;-76
2020/12/25 08:20:34;;;;;;;14.67;13.13;;;2.50;99.90;;;3.17;100.00;98086.88;5199932;28;20218;-76
2020/12/25 08:23:06;;;;;;;14.70;13.30;;;2.40;99.90;;;3.11;100.00;98086.34;5200778;28;20228;-76
2020/12/25 08:25:38;;;;;;;15.97;14.07;;;2.40;99.90;;;3.19;100.00;98088.69;5200835;28;20198;-76
2020/12/25 08:28:11;;;;;;;16.50;14.63;;;2.40;99.90;;;3.28;100.00;98092.00;5202045;28;20225;-78
2020/12/25 08:30:44;;;;;;;14.53;13.03;;;2.40;99.90;;;3.27;100.00;98093.66;5206871;28;20307;-77
2020/12/25 08:33:23;;;;;;;14.63;12.97;;;2.50;99.90;;;3.32;100.00;98106.69;5226568;28;20262;-77
2020/12/25 08:35:55;;;;;;;14.83;13.37;;;2.50;99.90;;;3.29;100.00;98101.34;5207439;28;20258;-77
2020/12/25 08:38:40;;;;;;;14.37;12.87;;;2.50;99.90;;;3.35;100.00;98112.03;5204655;28;20188;-74
2020/12/25 08:41:12;;;;;;;13.93;12.13;;;2.60;99.90;;;3.45;100.00;98107.03;5203434;28;20240;-76
2020/12/25 08:43:45;;;;;;;15.40;12.77;;;2.60;99.90;;;3.49;100.00;98118.28;5202918;28;20855;-76
2020/12/25 08:46:22;;;;;;;16.00;14.20;;;2.60;99.90;;;3.44;100.00;98112.84;5202912;28;20208;-76
2020/12/25 08:48:54;;;;;;;16.20;14.10;;;2.60;99.90;;;3.44;100.00;98115.34;5203279;28;20288;-75
2020/12/25 08:51:33;;;;;;;15.67;12.87;;;2.60;99.90;;;3.38;100.00;98118.22;5203456;28;20294;-76
2020/12/25 08:54:06;;;;;;;16.63;14.93;;;2.50;99.90;;;3.34;100.00;98121.22;5203093;28;20291;-77
2020/12/25 08:56:38;;;;;;;15.80;14.07;;;2.50;99.90;;;3.33;100.00;98123.63;5203245;28;20357;-76
2020/12/25 08:59:10;;;;;;;16.30;14.10;;;2.60;99.90;;;3.36;100.00;98126.41;5202584;28;20279;-76
2020/12/25 09:01:43;;;;;;;14.20;12.70;;;2.60;99.90;;;3.36;100.00;98127.31;5202961;28;20398;-76
2020/12/25 09:04:16;;;;;;;16.57;14.73;;;2.60;99.90;;;3.33;100.00;98128.69;5203529;28;20249;-76
2020/12/25 09:06:50;;;;;;;16.00;14.30;;;2.50;99.90;;;3.32;100.00;98131.94;5205735;28;20208;-76
2020/12/25 09:09:33;;;;;;;18.77;15.10;;;2.50;99.90;;;3.30;100.00;98138.50;5206063;28;20194;-75
2020/12/25 09:12:05;;;;;;;16.10;14.27;;;2.50;99.90;;;3.32;100.00;98144.56;5206264;28;20219;-75
2020/12/25 09:14:37;;;;;;;17.57;14.30;;;2.50;99.90;;;3.35;100.00;98148.28;5205399;28;20457;-76
2020/12/25 09:17:10;;;;;;;17.30;14.30;;;2.50;99.90;;;3.38;100.00;98152.72;5205009;28;20197;-74
2020/12/25 09:19:43;;;;;;;16.53;13.97;;;2.50;99.90;;;3.41;100.00;98147.94;5206021;28;20293;-75
2020/12/25 09:22:15;;;;;;;15.83;14.13;;;2.50;99.90;;;3.42;100.00;98152.22;5205986;28;20219;-75
2020/12/25 09:24:47;;;;;;;16.30;14.30;;;2.50;99.90;;;3.40;100.00;98146.13;5206745;28;20696;-75
2020/12/25 09:27:19;;;;;;;16.13;14.03;;;2.60;99.90;;;3.47;100.00;98156.06;5205540;28;20202;-75
2020/12/25 09:29:51;;;;;;;16.63;14.10;;;2.60;99.90;;;3.50;100.00;98142.81;5202910;28;20754;-75
2020/12/25 09:32:24;;;;;;;16.77;14.37;;;2.60;99.90;;;3.56;100.00;98144.22;5205987;28;20650;-75
2020/12/25 09:34:56;;;;;;;17.60;15.70;;;2.60;99.90;;;3.46;100.00;98151.72;5194290;28;20294;-75
2020/12/25 09:37:28;;;;;;;16.70;14.23;;;2.60;99.90;;;3.51;100.00;98144.56;5201751;28;20455;-75
2020/12/25 09:40:00;;;;;;;16.93;14.57;;;2.70;99.90;;;3.56;100.00;98149.28;5197165;28;20289;-75
2020/12/25 09:42:32;;;;;;;15.93;14.23;;;2.70;99.90;;;3.60;100.00;98156.38;5191962;28;20247;-75
2020/12/25 09:45:05;;;;;;;16.00;13.17;;;2.70;99.90;;;3.63;100.00;98164.97;5205357;28;20204;-75
2020/12/25 09:47:37;;;;;;;14.87;13.37;;;2.80;99.90;;;3.63;100.00;98159.94;5198000;28;20291;-75
2020/12/25 09:50:10;;;;;;;15.87;14.17;;;2.80;99.90;;;3.70;100.00;98158.09;5204250;28;20200;-75
2020/12/25 09:52:42;;;;;;;14.53;13.03;;;2.80;99.90;;;3.70;100.00;98154.69;5193618;28;20576;-75
2020/12/25 09:55:15;;;;;;;14.33;12.93;;;2.90;99.90;;;3.77;100.00;98160.38;5185637;28;20209;-75
2020/12/25 09:57:47;;;;;;;14.27;12.17;;;2.90;99.90;;;3.80;100.00;98167.34;5197856;28;20645;-75
2020/12/25 10:00:19;;;;;;;14.30;12.77;;;2.90;99.90;;;3.90;100.00;98164.88;5204194;28;20625;-75
2020/12/25 10:02:52;;;;;;;15.23;12.67;;;2.90;99.90;;;3.81;100.00;98171.69;5204729;28;20677;-75
2020/12/25 10:05:24;;;;;;;13.97;12.67;;;2.90;99.90;;;3.85;100.00;98178.75;5205364;28;20644;-75
2020/12/25 10:07:56;;;;;;;13.10;11.70;;;2.90;99.90;;;3.75;100.00;98168.59;5204766;28;20204;-75
2020/12/25 10:10:28;;;;;;;14.20;12.80;;;2.80;99.90;;;3.78;99.92;98179.00;5205458;28;20227;-75
2020/12/25 10:13:01;;;;;;;13.20;11.83;;;2.90;99.90;;;3.83;100.00;98167.63;5197594;28;20198;-75
2020/12/25 10:15:33;;;;;;;13.20;11.80;;;2.90;99.90;;;3.80;99.89;98180.88;5203689;28;20290;-74
2020/12/25 10:18:07;;;;;;;12.37;11.07;;;2.90;99.90;;;3.73;100.00;98167.59;5206874;28;20207;-75
2020/12/25 10:20:39;;;;;;;13.63;12.07;;;2.90;99.90;;;3.75;100.00;98166.06;5207713;28;20693;-75
2020/12/25 10:23:11;;;;;;;13.73;11.80;;;2.90;99.90;;;3.76;100.00;98163.69;5204169;28;20217;-75
2020/12/25 10:25:43;;;;;;;13.03;11.80;;;3.00;99.90;;;3.75;100.00;98163.53;5203928;28;20248;-75
2020/12/25 10:28:16;;;;;;;14.53;13.03;;;2.90;99.90;;;3.68;100.00;98158.69;5200954;28;20198;-75
2020/12/25 10:30:48;;;;;;;13.97;12.57;;;2.90;99.90;;;3.70;100.00;98162.25;5189678;28;20308;-75
2020/12/25 10:33:21;;;;;;;14.63;13.13;;;2.90;99.90;;;3.70;100.00;98164.78;5202784;28;20275;-75
2020/12/25 10:35:54;;;;;;;21.53;18.87;;;3.00;99.90;;;3.79;99.94;98163.94;5199696;28;20232;-75
2020/12/25 10:38:26;;;;;;;15.23;13.67;;;3.00;99.90;;;3.81;100.00;98167.50;5203952;28;20192;-75
2020/12/25 10:40:58;;;;;;;20.43;18.53;;;2.90;99.90;;;3.81;99.95;98166.63;5204067;28;20323;-75
2020/12/25 10:43:30;;;;;;;15.20;13.70;;;2.90;99.90;;;3.79;99.70;98163.06;5203374;28;20217;-75
2020/12/25 10:46:02;;;;;;;14.37;12.90;;;2.90;99.90;;;3.77;99.39;98164.56;5202405;28;20208;-75